ADDS METAR Data INFO
IDs: Format: Raw Decoded Include TAF

Data at: 0049 UTC 22 Oct 2017

KLCH 212353Z 18003KT 10SM CLR 26/23 A2995 RMK AO2 SLP149 T02610233 10311 20261 53005
KLCH 212253Z 18006KT 10SM CLR 28/23 A2993 RMK AO2 SLP144 T02830228
KLCH 212153Z 16011KT 10SM CLR 29/22 A2994 RMK AO2 SLP146 T02940222
KLCH 212053Z 16011KT 10SM SCT040 30/23 A2993 RMK AO2 LTG DSNT N SLP144 T03000228 56019
KLCH 211955Z 17010KT 10SM SCT040 30/23 A2994 RMK AO2 T03000233
KLCH 211953Z 18010KT 10SM FEW075 30/23 A2994 RMK AO2 SLP146 T03000228
KLCH 211907Z 16009G17KT 10SM SCT027 SCT050 30/23 A2995 RMK AO2 T03000233
KLCH 211853Z 18008G17KT 10SM BKN023 30/23 A2995 RMK AO2 SLP150 T03000228
KLCH 211753Z 14009KT 10SM SCT015 BKN020 28/24 A2999 RMK AO2 LTG DSNT W SLP163 60000 T02830239 10294 20217 58008
KLCH 211655Z 15005KT 10SM SCT015 BKN020 BKN028 27/24 A3001 RMK AO2 T02720239
KLCH 211653Z 14005KT 10SM BKN009 BKN017 OVC050 27/24 A3001 RMK AO2 SLP170 T02720239
KLCH 211553Z 11007KT 10SM BKN009 BKN014 OVC050 26/24 A3002 RMK AO2 RAE29 SLP173 P0000 T02610244
KLCH 211453Z 11008KT 8SM -RA BKN007 BKN026 OVC049 25/23 A3001 RMK AO2 RAB49 SLP171 P0000 60000 T02500233 51010
KLCH 211450Z 11010KT 9SM -RA BKN007 BKN028 BKN049 25/23 A3001 RMK AO2 RAB49 P0000
KLCH 211441Z 11010KT 10SM SCT007 BKN025 BKN049 25/23 A3001 RMK AO2 T02500233
KLCH 211415Z 11009KT 10SM FEW007 SCT024 BKN055 24/23 A3001 RMK AO2 T02440233
KLCH 211403Z 10006KT 10SM FEW013 BKN035 BKN055 24/23 A3000 RMK AO2 T02390228
KLCH 211353Z 10006KT 10SM SCT019 BKN029 BKN046 23/22 A3000 RMK AO2 SLP167 T02330222
KLCH 211347Z 09006KT 10SM FEW006 BKN026 OVC050 23/22 A3000 RMK AO2
KLCH 211320Z 09005KT 10SM BKN015 BKN023 23/22 A2999 RMK AO2 T02280217
KLCH 211313Z 09004KT 10SM SCT015 BKN024 23/22 A2999 RMK AO2 T02280217
KLCH 211253Z 11006KT 10SM FEW024 22/22 A2998 RMK AO2 SLP161 T02220217
KLCH 211153Z 13005KT 10SM CLR 22/22 A2996 RMK AO2 SLP153 60000 70007 T02220217 10228 20217 56002
KLCH 211128Z 12010KT 10SM FEW006 SCT015 23/22 A2997 RMK AO2 T02280217
KLCH 211116Z 12012KT 10SM SCT005 SCT016 BKN029 23/22 A2997 RMK AO2 T02280222
KLCH 211053Z 11010KT 10SM SCT005 23/22 A2996 RMK AO2 LTG DSNT SE RAB01E11 SLP154 P0000 T02280217
KLCH 211036Z AUTO 11009KT 10SM FEW006 FEW065 23/22 A2996 RMK AO2 RAB01E11 P0000 T02280222
KLCH 210953Z AUTO 11010KT 10SM FEW040 23/22 A2996 RMK AO2 SLP153 T02280217
KLCH 210937Z AUTO 11008KT 10SM SCT005 BKN040 22/22 A2996 RMK AO2 T02220217
KLCH 210917Z AUTO 10007KT 10SM BKN007 BKN029 BKN090 22/22 A2997 RMK AO2 T02220217
KLCH 210907Z AUTO 10007KT 10SM FEW007 SCT029 BKN090 22/22 A2997 RMK AO2 T02220217
KLCH 210853Z AUTO 10008KT 10SM FEW025 BKN090 22/22 A2997 RMK AO2 RAB29E38 SLP156 P0000 60000 T02220217 58007
KLCH 210813Z AUTO 10008KT 10SM FEW007 BKN080 OVC095 22/22 A2998 RMK AO2 T02220217
KLCH 210753Z AUTO 10008KT 10SM SCT006 BKN026 OVC075 22/22 A2998 RMK AO2 SLP160 T02220217
KLCH 210743Z AUTO 10006KT 10SM FEW006 BKN026 OVC075 22/22 A2999 RMK AO2 T02220217
KLCH 210653Z AUTO 09005KT 10SM FEW009 BKN060 OVC075 22/21 A2999 RMK AO2 SLP164 T02170211
KLCH 210648Z AUTO 08005KT 10SM SCT009 BKN060 OVC080 22/21 A2999 RMK AO2
KLCH 210553Z AUTO 11003KT 10SM FEW017 SCT024 22/21 A3000 RMK AO2 SLP165 60000 T02170206 10222 20206 402500206 55001
KLCH 210533Z AUTO 08005KT 10SM SCT018 BKN025 22/21 A2999 RMK AO2 T02170206
KLCH 210453Z AUTO 08006KT 10SM CLR 21/20 A2999 RMK AO2 SLP163 T02110200
KLCH 210353Z AUTO 10007KT 10SM CLR 22/20 A3000 RMK AO2 SLP166 T02170200
KLCH 210253Z 14003KT 10SM CLR 21/20 A3000 RMK AO2 SLP166 60000 T02060200 55002
KLCH 210153Z 05005KT 10SM CLR 21/20 A3000 RMK AO2 SLP165 T02110200
KLCH 210053Z 00000KT 10SM CLR 22/21 A3000 RMK AO2 RAB10E24 SLP167 P0000 T02170206
KLCH 202353Z AUTO 08004KT 10SM CLR 22/21 A3001 RMK AO2 RAB05E17 SLP168 P0000 60007 T02220206 10239 20217 56001
KLCH 202253Z AUTO 02004KT 10SM CLR 22/21 A3001 RMK AO2 SLP168 T02220206
KLCH 202153Z 10005KT 10SM FEW120 22/21 A2999 RMK AO2 RAE49 SLP164 P0004 T02220206
KLCH 202053Z 07006KT 8SM RA SCT110 22/20 A3001 RMK AO2 RAB06 SLP170 P0003 60003 T02220200 56021
KLCH 201953Z 09005KT 10SM CLR 23/19 A3003 RMK AO2 SLP175 T02330189
KLCH 201853Z 08008KT 10SM FEW095 FEW110 23/19 A3003 RMK AO2 RAB17E53 SLP178 P0000 T02330194
KLCH 201753Z 08009KT 10SM SCT075 24/18 A3007 RMK AO2 SLP191 T02390183 10250 20217 58012
KLCH 201653Z 12011KT 10SM BKN046 25/18 A3010 RMK AO2 SLP200 T02500183
KLCH 201553Z 10011KT 10SM FEW041 FEW110 23/18 A3009 RMK AO2 SLP198 T02280183
KLCH 201453Z 08011KT 10SM FEW120 22/18 A3011 RMK AO2 PRESFR SLP202 T02220183 50002
KLCH 201353Z 10008KT 10SM FEW120 22/18 A3012 RMK AO2 SLP205 T02170183
KLCH 201253Z 10008KT 10SM BKN055 22/18 A3010 RMK AO2 SLP201 T02170183